sensor_id;sensor_type;location;lat;lon;timestamp;temperature;humidity
20141;DHT22;10231;47.702;9.826;2023-05-29T00:00:16;14.90;96.60
20141;DHT22;10231;47.702;9.826;2023-05-29T00:02:44;14.80;96.60
20141;DHT22;10231;47.702;9.826;2023-05-29T00:05:11;14.80;96.70
20141;DHT22;10231;47.702;9.826;2023-05-29T00:07:38;14.80;97.20
20141;DHT22;10231;47.702;9.826;2023-05-29T00:10:08;14.70;97.40
20141;DHT22;10231;47.702;9.826;2023-05-29T00:12:34;14.70;97.60
20141;DHT22;10231;47.702;9.826;2023-05-29T00:15:00;14.60;96.90
20141;DHT22;10231;47.702;9.826;2023-05-29T00:17:26;14.50;97.10
20141;DHT22;10231;47.702;9.826;2023-05-29T00:19:52;14.60;97.60
20141;DHT22;10231;47.702;9.826;2023-05-29T00:22:18;14.50;98.00
20141;DHT22;10231;47.702;9.826;2023-05-29T00:24:44;14.40;97.90
20141;DHT22;10231;47.702;9.826;2023-05-29T00:27:10;14.30;98.50
20141;DHT22;10231;47.702;9.826;2023-05-29T00:29:38;14.30;99.10
20141;DHT22;10231;47.702;9.826;2023-05-29T00:32:04;14.30;98.40
20141;DHT22;10231;47.702;9.826;2023-05-29T00:34:30;14.20;98.80
20141;DHT22;10231;47.702;9.826;2023-05-29T00:36:56;14.10;98.70
20141;DHT22;10231;47.702;9.826;2023-05-29T00:39:22;14.10;98.00
20141;DHT22;10231;47.702;9.826;2023-05-29T00:41:48;14.10;98.60
20141;DHT22;10231;47.702;9.826;2023-05-29T00:44:18;14.00;98.60
20141;DHT22;10231;47.702;9.826;2023-05-29T00:46:43;14.00;98.90
20141;DHT22;10231;47.702;9.826;2023-05-29T00:49:09;14.00;99.00
20141;DHT22;10231;47.702;9.826;2023-05-29T00:51:37;13.90;99.30
20141;DHT22;10231;47.702;9.826;2023-05-29T00:54:06;13.90;99.30
20141;DHT22;10231;47.702;9.826;2023-05-29T00:56:34;13.90;99.70
20141;DHT22;10231;47.702;9.826;2023-05-29T00:59:01;13.80;99.90
20141;DHT22;10231;47.702;9.826;2023-05-29T01:01:26;13.80;99.90
20141;DHT22;10231;47.702;9.826;2023-05-29T01:03:55;13.80;99.90
20141;DHT22;10231;47.702;9.826;2023-05-29T01:06:23;13.80;99.90
20141;DHT22;10231;47.702;9.826;2023-05-29T01:08:48;13.70;99.90
20141;DHT22;10231;47.702;9.826;2023-05-29T01:14:25;13.60;99.90
20141;DHT22;10231;47.702;9.826;2023-05-29T01:17:07;13.60;99.90
20141;DHT22;10231;47.702;9.826;2023-05-29T01:28:09;13.40;99.90
20141;DHT22;10231;47.702;9.826;2023-05-29T01:30:37;13.40;99.90
20141;DHT22;10231;47.702;9.826;2023-05-29T01:33:03;13.40;99.90
20141;DHT22;10231;47.702;9.826;2023-05-29T01:35:29;13.30;99.90
20141;DHT22;10231;47.702;9.826;2023-05-29T01:37:55;13.30;99.90
20141;DHT22;10231;47.702;9.826;2023-05-29T01:40:20;13.30;99.90
20141;DHT22;10231;47.702;9.826;2023-05-29T01:42:46;13.30;99.90
20141;DHT22;10231;47.702;9.826;2023-05-29T01:45:12;13.20;99.90
20141;DHT22;10231;47.702;9.826;2023-05-29T01:47:38;13.20;99.90
20141;DHT22;10231;47.702;9.826;2023-05-29T01:50:04;13.10;99.90
20141;DHT22;10231;47.702;9.826;2023-05-29T01:52:31;13.10;99.90
20141;DHT22;10231;47.702;9.826;2023-05-29T01:54:57;13.10;99.90
20141;DHT22;10231;47.702;9.826;2023-05-29T01:57:23;13.10;99.90
20141;DHT22;10231;47.702;9.826;2023-05-29T01:59:49;13.20;99.90
20141;DHT22;10231;47.702;9.826;2023-05-29T02:02:15;13.10;99.90
20141;DHT22;10231;47.702;9.826;2023-05-29T02:04:41;13.10;99.90
20141;DHT22;10231;47.702;9.826;2023-05-29T02:07:06;13.00;99.90
20141;DHT22;10231;47.702;9.826;2023-05-29T02:09:32;13.00;99.90
20141;DHT22;10231;47.702;9.826;2023-05-29T02:11:58;13.00;99.90
20141;DHT22;10231;47.702;9.826;2023-05-29T02:14:23;13.00;99.90
20141;DHT22;10231;47.702;9.826;2023-05-29T02:16:52;12.90;99.90
20141;DHT22;10231;47.702;9.826;2023-05-29T02:19:18;12.90;99.90
20141;DHT22;10231;47.702;9.826;2023-05-29T02:21:44;12.90;99.90
20141;DHT22;10231;47.702;9.826;2023-05-29T02:24:10;12.90;99.90
20141;DHT22;10231;47.702;9.826;2023-05-29T02:26:35;12.90;99.90
20141;DHT22;10231;47.702;9.826;2023-05-29T02:29:04;12.90;99.90
20141;DHT22;10231;47.702;9.826;2023-05-29T02:31:32;12.80;99.90
20141;DHT22;10231;47.702;9.826;2023-05-29T02:33:58;12.80;99.90
20141;DHT22;10231;47.702;9.826;2023-05-29T02:36:24;12.80;99.90
20141;DHT22;10231;47.702;9.826;2023-05-29T02:38:49;12.80;99.90
20141;DHT22;10231;47.702;9.826;2023-05-29T02:41:15;12.80;99.90
20141;DHT22;10231;47.702;9.826;2023-05-29T02:43:41;12.70;99.90
20141;DHT22;10231;47.702;9.826;2023-05-29T02:46:06;12.70;99.90
20141;DHT22;10231;47.702;9.826;2023-05-29T02:48:32;12.70;99.90
20141;DHT22;10231;47.702;9.826;2023-05-29T02:50:57;12.60;99.90
20141;DHT22;10231;47.702;9.826;2023-05-29T02:53:23;12.60;99.90
20141;DHT22;10231;47.702;9.826;2023-05-29T02:55:49;12.50;99.90
20141;DHT22;10231;47.702;9.826;2023-05-29T02:58:16;12.50;99.90
20141;DHT22;10231;47.702;9.826;2023-05-29T03:00:42;12.40;99.90
20141;DHT22;10231;47.702;9.826;2023-05-29T03:03:07;12.40;99.90
20141;DHT22;10231;47.702;9.826;2023-05-29T03:05:33;12.30;99.90
20141;DHT22;10231;47.702;9.826;2023-05-29T03:07:59;12.30;99.90
20141;DHT22;10231;47.702;9.826;2023-05-29T03:10:24;12.20;99.90
20141;DHT22;10231;47.702;9.826;2023-05-29T03:12:50;12.20;99.90
20141;DHT22;10231;47.702;9.826;2023-05-29T03:15:16;12.20;99.90
20141;DHT22;10231;47.702;9.826;2023-05-29T03:17:45;12.20;99.90
20141;DHT22;10231;47.702;9.826;2023-05-29T03:20:11;12.20;99.90
20141;DHT22;10231;47.702;9.826;2023-05-29T03:22:37;12.20;99.90
20141;DHT22;10231;47.702;9.826;2023-05-29T03:25:03;12.20;99.90
20141;DHT22;10231;47.702;9.826;2023-05-29T03:27:29;12.20;99.90
20141;DHT22;10231;47.702;9.826;2023-05-29T03:29:55;12.20;99.90
20141;DHT22;10231;47.702;9.826;2023-05-29T03:32:21;12.20;99.90
20141;DHT22;10231;47.702;9.826;2023-05-29T03:34:46;12.20;99.90
20141;DHT22;10231;47.702;9.826;2023-05-29T03:37:13;12.10;99.90
20141;DHT22;10231;47.702;9.826;2023-05-29T03:39:39;12.10;99.90
20141;DHT22;10231;47.702;9.826;2023-05-29T03:42:04;12.10;99.90
20141;DHT22;10231;47.702;9.826;2023-05-29T03:44:30;12.10;99.90
20141;DHT22;10231;47.702;9.826;2023-05-29T03:46:56;12.00;99.90
20141;DHT22;10231;47.702;9.826;2023-05-29T03:49:21;12.10;99.90
20141;DHT22;10231;47.702;9.826;2023-05-29T03:51:47;12.10;99.90
20141;DHT22;10231;47.702;9.826;2023-05-29T03:54:13;12.10;99.90
20141;DHT22;10231;47.702;9.826;2023-05-29T03:56:38;12.10;99.90
20141;DHT22;10231;47.702;9.826;2023-05-29T03:59:04;12.10;99.90
20141;DHT22;10231;47.702;9.826;2023-05-29T04:01:30;12.10;99.90
20141;DHT22;10231;47.702;9.826;2023-05-29T04:03:56;12.10;99.90
20141;DHT22;10231;47.702;9.826;2023-05-29T04:06:21;12.20;99.90
20141;DHT22;10231;47.702;9.826;2023-05-29T04:08:48;12.10;99.90
20141;DHT22;10231;47.702;9.826;2023-05-29T04:11:14;12.10;99.90
20141;DHT22;10231;47.702;9.826;2023-05-29T04:13:40;12.10;99.90
20141;DHT22;10231;47.702;9.826;2023-05-29T04:16:06;12.20;99.90
20141;DHT22;10231;47.702;9.826;2023-05-29T04:18:32;12.20;99.90
20141;DHT22;10231;47.702;9.826;2023-05-29T04:20:57;12.10;99.90
20141;DHT22;10231;47.702;9.826;2023-05-29T04:23:23;12.10;99.90
20141;DHT22;10231;47.702;9.826;2023-05-29T04:25:49;12.10;99.90
20141;DHT22;10231;47.702;9.826;2023-05-29T04:28:16;12.10;99.90
20141;DHT22;10231;47.702;9.826;2023-05-29T04:30:42;12.00;99.90
20141;DHT22;10231;47.702;9.826;2023-05-29T04:33:08;12.00;99.90
20141;DHT22;10231;47.702;9.826;2023-05-29T04:35:35;12.00;99.90
20141;DHT22;10231;47.702;9.826;2023-05-29T04:38:00;12.00;99.90
20141;DHT22;10231;47.702;9.826;2023-05-29T04:40:26;12.00;99.90
20141;DHT22;10231;47.702;9.826;2023-05-29T04:42:52;12.00;99.90
20141;DHT22;10231;47.702;9.826;2023-05-29T04:45:19;12.00;99.90
20141;DHT22;10231;47.702;9.826;2023-05-29T04:47:46;12.00;99.90
20141;DHT22;10231;47.702;9.826;2023-05-29T04:50:16;12.00;99.90
20141;DHT22;10231;47.702;9.826;2023-05-29T04:52:42;12.10;99.90
20141;DHT22;10231;47.702;9.826;2023-05-29T04:55:09;12.10;99.90
20141;DHT22;10231;47.702;9.826;2023-05-29T04:57:35;12.10;99.90
20141;DHT22;10231;47.702;9.826;2023-05-29T05:00:01;12.20;99.90
20141;DHT22;10231;47.702;9.826;2023-05-29T05:02:30;12.20;99.90
20141;DHT22;10231;47.702;9.826;2023-05-29T05:04:55;12.30;99.90
20141;DHT22;10231;47.702;9.826;2023-05-29T05:07:21;12.30;99.90
20141;DHT22;10231;47.702;9.826;2023-05-29T05:09:46;12.40;99.90
20141;DHT22;10231;47.702;9.826;2023-05-29T05:12:12;12.40;99.90
20141;DHT22;10231;47.702;9.826;2023-05-29T05:14:37;12.60;99.90
20141;DHT22;10231;47.702;9.826;2023-05-29T05:17:03;12.60;99.90
20141;DHT22;10231;47.702;9.826;2023-05-29T05:19:29;12.70;99.90
20141;DHT22;10231;47.702;9.826;2023-05-29T05:21:54;12.80;99.90
20141;DHT22;10231;47.702;9.826;2023-05-29T05:24:20;12.80;99.90
20141;DHT22;10231;47.702;9.826;2023-05-29T05:26:45;12.90;99.90
20141;DHT22;10231;47.702;9.826;2023-05-29T05:29:11;12.90;99.90
20141;DHT22;10231;47.702;9.826;2023-05-29T05:31:36;13.10;99.90
20141;DHT22;10231;47.702;9.826;2023-05-29T05:34:02;13.20;99.90
20141;DHT22;10231;47.702;9.826;2023-05-29T05:36:28;13.30;99.90
20141;DHT22;10231;47.702;9.826;2023-05-29T05:38:53;13.30;99.90
20141;DHT22;10231;47.702;9.826;2023-05-29T05:41:19;13.40;99.90
20141;DHT22;10231;47.702;9.826;2023-05-29T05:43:46;13.40;99.90
20141;DHT22;10231;47.702;9.826;2023-05-29T05:46:11;13.50;99.90
20141;DHT22;10231;47.702;9.826;2023-05-29T05:48:39;13.50;99.90
20141;DHT22;10231;47.702;9.826;2023-05-29T05:51:04;13.60;99.90
20141;DHT22;10231;47.702;9.826;2023-05-29T05:53:30;13.70;99.90
20141;DHT22;10231;47.702;9.826;2023-05-29T05:55:55;13.80;99.90
20141;DHT22;10231;47.702;9.826;2023-05-29T05:58:21;13.80;99.90
20141;DHT22;10231;47.702;9.826;2023-05-29T06:00:47;13.90;99.90
20141;DHT22;10231;47.702;9.826;2023-05-29T06:03:12;14.00;99.90
20141;DHT22;10231;47.702;9.826;2023-05-29T06:05:38;14.10;99.90
20141;DHT22;10231;47.702;9.826;2023-05-29T06:08:06;14.20;99.90
20141;DHT22;10231;47.702;9.826;2023-05-29T06:10:33;14.30;99.90
20141;DHT22;10231;47.702;9.826;2023-05-29T06:12:59;14.40;99.90
20141;DHT22;10231;47.702;9.826;2023-05-29T06:15:24;14.40;99.90
20141;DHT22;10231;47.702;9.826;2023-05-29T06:17:50;14.50;99.90
20141;DHT22;10231;47.702;9.826;2023-05-29T06:20:17;14.50;99.90
20141;DHT22;10231;47.702;9.826;2023-05-29T06:22:42;14.60;99.90
20141;DHT22;10231;47.702;9.826;2023-05-29T06:25:08;14.60;99.90
20141;DHT22;10231;47.702;9.826;2023-05-29T06:27:35;14.70;99.90
20141;DHT22;10231;47.702;9.826;2023-05-29T06:30:00;14.70;99.90
20141;DHT22;10231;47.702;9.826;2023-05-29T06:32:26;14.80;99.90
20141;DHT22;10231;47.702;9.826;2023-05-29T06:34:53;14.90;99.90
20141;DHT22;10231;47.702;9.826;2023-05-29T06:37:19;15.00;99.90
20141;DHT22;10231;47.702;9.826;2023-05-29T06:39:45;15.00;99.90
20141;DHT22;10231;47.702;9.826;2023-05-29T06:42:10;15.10;99.90
20141;DHT22;10231;47.702;9.826;2023-05-29T06:44:36;15.10;99.90
20141;DHT22;10231;47.702;9.826;2023-05-29T06:47:02;15.10;99.90
20141;DHT22;10231;47.702;9.826;2023-05-29T06:49:27;15.20;99.90
20141;DHT22;10231;47.702;9.826;2023-05-29T06:51:53;15.30;99.90
20141;DHT22;10231;47.702;9.826;2023-05-29T06:54:18;15.30;99.90
20141;DHT22;10231;47.702;9.826;2023-05-29T06:56:44;15.40;99.90
20141;DHT22;10231;47.702;9.826;2023-05-29T06:59:09;15.50;99.90
20141;DHT22;10231;47.702;9.826;2023-05-29T07:01:35;15.60;99.90
20141;DHT22;10231;47.702;9.826;2023-05-29T07:04:00;15.70;99.90
20141;DHT22;10231;47.702;9.826;2023-05-29T07:06:26;15.70;99.90
20141;DHT22;10231;47.702;9.826;2023-05-29T07:08:52;15.70;99.90
20141;DHT22;10231;47.702;9.826;2023-05-29T07:11:17;15.80;99.90
20141;DHT22;10231;47.702;9.826;2023-05-29T07:13:43;15.90;99.90
20141;DHT22;10231;47.702;9.826;2023-05-29T07:16:08;16.00;99.90
20141;DHT22;10231;47.702;9.826;2023-05-29T07:18:34;16.10;99.90
20141;DHT22;10231;47.702;9.826;2023-05-29T07:21:00;16.20;99.90
20141;DHT22;10231;47.702;9.826;2023-05-29T07:23:26;16.40;99.90
20141;DHT22;10231;47.702;9.826;2023-05-29T07:25:52;16.50;99.90
20141;DHT22;10231;47.702;9.826;2023-05-29T07:28:17;16.50;99.90
20141;DHT22;10231;47.702;9.826;2023-05-29T07:30:43;16.70;99.90
20141;DHT22;10231;47.702;9.826;2023-05-29T07:33:08;16.80;99.90
20141;DHT22;10231;47.702;9.826;2023-05-29T07:35:34;16.90;99.90
20141;DHT22;10231;47.702;9.826;2023-05-29T07:38:00;17.00;99.90
20141;DHT22;10231;47.702;9.826;2023-05-29T07:40:26;17.10;99.90
20141;DHT22;10231;47.702;9.826;2023-05-29T07:42:51;17.20;99.90
20141;DHT22;10231;47.702;9.826;2023-05-29T07:45:17;17.30;99.90
20141;DHT22;10231;47.702;9.826;2023-05-29T07:47:43;17.40;99.90
20141;DHT22;10231;47.702;9.826;2023-05-29T07:50:09;17.50;99.90
20141;DHT22;10231;47.702;9.826;2023-05-29T07:52:35;17.60;99.90
20141;DHT22;10231;47.702;9.826;2023-05-29T07:55:01;17.60;99.90
20141;DHT22;10231;47.702;9.826;2023-05-29T07:57:27;17.60;99.90
20141;DHT22;10231;47.702;9.826;2023-05-29T07:59:53;17.70;99.90
20141;DHT22;10231;47.702;9.826;2023-05-29T08:02:19;17.70;99.90
20141;DHT22;10231;47.702;9.826;2023-05-29T08:04:45;17.90;99.90
20141;DHT22;10231;47.702;9.826;2023-05-29T08:07:11;17.90;99.90
20141;DHT22;10231;47.702;9.826;2023-05-29T08:09:37;18.00;99.90
20141;DHT22;10231;47.702;9.826;2023-05-29T08:12:03;18.00;99.90
20141;DHT22;10231;47.702;9.826;2023-05-29T08:14:28;18.10;99.90
20141;DHT22;10231;47.702;9.826;2023-05-29T08:16:54;18.10;99.90
20141;DHT22;10231;47.702;9.826;2023-05-29T08:19:20;18.20;99.90
20141;DHT22;10231;47.702;9.826;2023-05-29T08:21:45;18.20;99.90
20141;DHT22;10231;47.702;9.826;2023-05-29T08:24:11;18.20;99.90
20141;DHT22;10231;47.702;9.826;2023-05-29T08:26:37;18.30;99.90
20141;DHT22;10231;47.702;9.826;2023-05-29T08:29:02;18.40;99.90
20141;DHT22;10231;47.702;9.826;2023-05-29T08:31:29;18.50;99.70
20141;DHT22;10231;47.702;9.826;2023-05-29T08:33:55;18.60;99.20
20141;DHT22;10231;47.702;9.826;2023-05-29T08:36:21;18.60;99.10
20141;DHT22;10231;47.702;9.826;2023-05-29T08:38:48;18.60;98.40
20141;DHT22;10231;47.702;9.826;2023-05-29T08:41:20;18.70;98.10
20141;DHT22;10231;47.702;9.826;2023-05-29T08:43:48;18.70;98.00
20141;DHT22;10231;47.702;9.826;2023-05-29T08:46:15;18.70;98.70
20141;DHT22;10231;47.702;9.826;2023-05-29T08:48:45;18.80;99.90
20141;DHT22;10231;47.702;9.826;2023-05-29T08:51:13;19.00;99.90
20141;DHT22;10231;47.702;9.826;2023-05-29T08:53:40;18.90;99.20
20141;DHT22;10231;47.702;9.826;2023-05-29T08:56:06;18.90;99.10
20141;DHT22;10231;47.702;9.826;2023-05-29T08:58:32;18.90;99.20
20141;DHT22;10231;47.702;9.826;2023-05-29T09:00:59;18.90;99.20
20141;DHT22;10231;47.702;9.826;2023-05-29T09:03:25;19.00;99.00
20141;DHT22;10231;47.702;9.826;2023-05-29T09:05:50;19.10;99.10
20141;DHT22;10231;47.702;9.826;2023-05-29T09:08:16;19.10;98.90
20141;DHT22;10231;47.702;9.826;2023-05-29T09:10:42;19.10;98.70
20141;DHT22;10231;47.702;9.826;2023-05-29T09:13:09;19.20;98.80
20141;DHT22;10231;47.702;9.826;2023-05-29T09:15:35;19.10;98.70
20141;DHT22;10231;47.702;9.826;2023-05-29T09:18:02;19.10;98.10
20141;DHT22;10231;47.702;9.826;2023-05-29T09:20:29;19.10;98.40
20141;DHT22;10231;47.702;9.826;2023-05-29T09:23:04;19.10;97.70
20141;DHT22;10231;47.702;9.826;2023-05-29T09:25:31;19.10;98.40
20141;DHT22;10231;47.702;9.826;2023-05-29T09:28:05;19.10;98.10
20141;DHT22;10231;47.702;9.826;2023-05-29T09:30:46;19.20;98.30
20141;DHT22;10231;47.702;9.826;2023-05-29T09:33:15;19.30;99.90
20141;DHT22;10231;47.702;9.826;2023-05-29T09:35:48;19.40;98.30
20141;DHT22;10231;47.702;9.826;2023-05-29T09:38:16;19.60;97.40
20141;DHT22;10231;47.702;9.826;2023-05-29T09:40:42;19.60;97.10
20141;DHT22;10231;47.702;9.826;2023-05-29T09:43:12;19.50;96.20
20141;DHT22;10231;47.702;9.826;2023-05-29T09:45:40;19.50;96.20
20141;DHT22;10231;47.702;9.826;2023-05-29T09:48:08;19.50;96.30
20141;DHT22;10231;47.702;9.826;2023-05-29T09:50:35;19.50;96.30
20141;DHT22;10231;47.702;9.826;2023-05-29T09:53:01;19.50;96.90
20141;DHT22;10231;47.702;9.826;2023-05-29T09:55:27;19.60;97.90
20141;DHT22;10231;47.702;9.826;2023-05-29T09:57:54;19.60;96.50
20141;DHT22;10231;47.702;9.826;2023-05-29T10:00:20;19.70;96.30
20141;DHT22;10231;47.702;9.826;2023-05-29T10:02:48;19.70;97.00
20141;DHT22;10231;47.702;9.826;2023-05-29T10:05:13;19.80;96.10
20141;DHT22;10231;47.702;9.826;2023-05-29T10:07:44;19.80;96.00
20141;DHT22;10231;47.702;9.826;2023-05-29T10:10:12;19.80;95.50
20141;DHT22;10231;47.702;9.826;2023-05-29T10:12:42;19.90;95.80
20141;DHT22;10231;47.702;9.826;2023-05-29T10:15:14;19.90;95.40
20141;DHT22;10231;47.702;9.826;2023-05-29T10:17:52;19.90;95.10
20141;DHT22;10231;47.702;9.826;2023-05-29T10:20:23;19.90;94.70
20141;DHT22;10231;47.702;9.826;2023-05-29T10:22:50;19.90;95.20
20141;DHT22;10231;47.702;9.826;2023-05-29T10:25:19;19.90;95.20
20141;DHT22;10231;47.702;9.826;2023-05-29T10:27:45;19.90;94.50
20141;DHT22;10231;47.702;9.826;2023-05-29T10:30:14;19.90;94.30
20141;DHT22;10231;47.702;9.826;2023-05-29T10:32:55;20.00;94.80
20141;DHT22;10231;47.702;9.826;2023-05-29T10:35:35;20.10;95.20
20141;DHT22;10231;47.702;9.826;2023-05-29T10:38:10;20.10;94.40
20141;DHT22;10231;47.702;9.826;2023-05-29T10:40:37;20.10;93.50
20141;DHT22;10231;47.702;9.826;2023-05-29T10:43:02;20.10;94.10
20141;DHT22;10231;47.702;9.826;2023-05-29T10:50:46;20.20;94.60
20141;DHT22;10231;47.702;9.826;2023-05-29T10:53:16;20.20;94.60
20141;DHT22;10231;47.702;9.826;2023-05-29T10:55:44;20.20;94.50
20141;DHT22;10231;47.702;9.826;2023-05-29T11:00:46;20.40;94.50
20141;DHT22;10231;47.702;9.826;2023-05-29T11:03:21;20.50;93.90
20141;DHT22;10231;47.702;9.826;2023-05-29T11:08:35;20.60;94.70
20141;DHT22;10231;47.702;9.826;2023-05-29T11:11:02;20.70;93.60
20141;DHT22;10231;47.702;9.826;2023-05-29T11:13:33;20.90;94.40
20141;DHT22;10231;47.702;9.826;2023-05-29T11:18:40;21.00;93.40
20141;DHT22;10231;47.702;9.826;2023-05-29T11:24:01;21.00;91.50
20141;DHT22;10231;47.702;9.826;2023-05-29T11:26:31;21.00;92.40
20141;DHT22;10231;47.702;9.826;2023-05-29T11:29:07;21.10;92.20
20141;DHT22;10231;47.702;9.826;2023-05-29T11:31:37;21.10;92.50
20141;DHT22;10231;47.702;9.826;2023-05-29T11:34:04;21.30;92.90
20141;DHT22;10231;47.702;9.826;2023-05-29T11:36:33;21.30;92.50
20141;DHT22;10231;47.702;9.826;2023-05-29T11:39:00;21.30;93.30
20141;DHT22;10231;47.702;9.826;2023-05-29T11:41:26;21.50;93.30
20141;DHT22;10231;47.702;9.826;2023-05-29T11:44:00;21.40;92.10
20141;DHT22;10231;47.702;9.826;2023-05-29T11:46:28;21.60;93.80
20141;DHT22;10231;47.702;9.826;2023-05-29T11:48:56;21.60;92.90
20141;DHT22;10231;47.702;9.826;2023-05-29T11:51:22;21.70;93.20
20141;DHT22;10231;47.702;9.826;2023-05-29T11:53:48;21.80;93.10
20141;DHT22;10231;47.702;9.826;2023-05-29T11:56:14;21.70;93.10
20141;DHT22;10231;47.702;9.826;2023-05-29T11:58:41;21.80;92.60
20141;DHT22;10231;47.702;9.826;2023-05-29T12:01:07;21.90;92.90
20141;DHT22;10231;47.702;9.826;2023-05-29T12:03:40;21.90;92.90
20141;DHT22;10231;47.702;9.826;2023-05-29T12:06:08;22.00;94.70
20141;DHT22;10231;47.702;9.826;2023-05-29T12:08:34;22.10;93.20
20141;DHT22;10231;47.702;9.826;2023-05-29T12:10:59;22.20;92.30
20141;DHT22;10231;47.702;9.826;2023-05-29T12:13:25;22.30;92.60
20141;DHT22;10231;47.702;9.826;2023-05-29T12:15:57;22.40;91.70
20141;DHT22;10231;47.702;9.826;2023-05-29T12:18:25;22.50;92.80
20141;DHT22;10231;47.702;9.826;2023-05-29T12:20:56;22.60;91.60
20141;DHT22;10231;47.702;9.826;2023-05-29T12:23:21;22.60;91.00
20141;DHT22;10231;47.702;9.826;2023-05-29T12:25:48;22.60;91.60
20141;DHT22;10231;47.702;9.826;2023-05-29T12:28:17;22.70;91.30
20141;DHT22;10231;47.702;9.826;2023-05-29T12:30:46;22.70;92.30
20141;DHT22;10231;47.702;9.826;2023-05-29T12:33:25;22.80;91.30
20141;DHT22;10231;47.702;9.826;2023-05-29T12:35:53;22.80;91.60
20141;DHT22;10231;47.702;9.826;2023-05-29T12:38:18;22.90;90.90
20141;DHT22;10231;47.702;9.826;2023-05-29T12:40:48;22.90;90.90
20141;DHT22;10231;47.702;9.826;2023-05-29T12:43:14;23.00;91.00
20141;DHT22;10231;47.702;9.826;2023-05-29T12:45:39;23.10;91.60
20141;DHT22;10231;47.702;9.826;2023-05-29T12:48:06;23.20;91.00
20141;DHT22;10231;47.702;9.826;2023-05-29T12:50:37;23.30;89.50
20141;DHT22;10231;47.702;9.826;2023-05-29T12:53:12;23.30;88.80
20141;DHT22;10231;47.702;9.826;2023-05-29T12:55:41;23.30;88.80
20141;DHT22;10231;47.702;9.826;2023-05-29T12:58:11;23.30;90.30
20141;DHT22;10231;47.702;9.826;2023-05-29T13:00:39;23.40;86.00
20141;DHT22;10231;47.702;9.826;2023-05-29T13:03:05;23.40;87.30
20141;DHT22;10231;47.702;9.826;2023-05-29T13:05:34;23.50;90.00
20141;DHT22;10231;47.702;9.826;2023-05-29T13:08:00;23.60;88.80
20141;DHT22;10231;47.702;9.826;2023-05-29T13:10:27;23.70;87.70
20141;DHT22;10231;47.702;9.826;2023-05-29T13:12:54;23.70;85.10
20141;DHT22;10231;47.702;9.826;2023-05-29T13:15:22;23.70;83.70
20141;DHT22;10231;47.702;9.826;2023-05-29T13:17:48;23.70;85.90
20141;DHT22;10231;47.702;9.826;2023-05-29T13:20:14;23.80;82.50
20141;DHT22;10231;47.702;9.826;2023-05-29T13:22:41;23.90;82.30
20141;DHT22;10231;47.702;9.826;2023-05-29T13:25:09;23.90;81.10
20141;DHT22;10231;47.702;9.826;2023-05-29T13:27:39;24.00;80.40
20141;DHT22;10231;47.702;9.826;2023-05-29T13:30:06;24.10;82.10
20141;DHT22;10231;47.702;9.826;2023-05-29T13:32:32;24.20;80.80
20141;DHT22;10231;47.702;9.826;2023-05-29T13:34:58;24.20;80.40
20141;DHT22;10231;47.702;9.826;2023-05-29T13:37:23;24.30;83.70
20141;DHT22;10231;47.702;9.826;2023-05-29T13:39:49;24.40;80.70
20141;DHT22;10231;47.702;9.826;2023-05-29T13:42:16;24.50;81.50
20141;DHT22;10231;47.702;9.826;2023-05-29T13:44:41;24.50;80.20
20141;DHT22;10231;47.702;9.826;2023-05-29T13:47:07;24.60;78.80
20141;DHT22;10231;47.702;9.826;2023-05-29T13:49:34;24.60;77.90
20141;DHT22;10231;47.702;9.826;2023-05-29T13:52:00;24.70;80.70
20141;DHT22;10231;47.702;9.826;2023-05-29T13:54:26;24.70;81.30
20141;DHT22;10231;47.702;9.826;2023-05-29T13:56:55;24.80;76.80
20141;DHT22;10231;47.702;9.826;2023-05-29T13:59:21;24.90;76.90
20141;DHT22;10231;47.702;9.826;2023-05-29T14:01:46;25.00;76.60
20141;DHT22;10231;47.702;9.826;2023-05-29T14:04:12;25.00;76.80
20141;DHT22;10231;47.702;9.826;2023-05-29T14:06:38;25.10;73.20
20141;DHT22;10231;47.702;9.826;2023-05-29T14:09:04;25.20;75.50
20141;DHT22;10231;47.702;9.826;2023-05-29T14:11:29;25.40;78.80
20141;DHT22;10231;47.702;9.826;2023-05-29T14:13:55;25.50;75.40
20141;DHT22;10231;47.702;9.826;2023-05-29T14:16:21;25.60;72.40
20141;DHT22;10231;47.702;9.826;2023-05-29T14:18:46;25.70;72.50
20141;DHT22;10231;47.702;9.826;2023-05-29T14:21:13;25.70;71.60
20141;DHT22;10231;47.702;9.826;2023-05-29T14:23:39;25.60;73.60
20141;DHT22;10231;47.702;9.826;2023-05-29T14:26:05;25.50;72.60
20141;DHT22;10231;47.702;9.826;2023-05-29T14:28:31;25.60;72.30
20141;DHT22;10231;47.702;9.826;2023-05-29T14:30:56;25.80;71.70
20141;DHT22;10231;47.702;9.826;2023-05-29T14:33:22;25.90;68.40
20141;DHT22;10231;47.702;9.826;2023-05-29T14:35:47;25.90;74.50
20141;DHT22;10231;47.702;9.826;2023-05-29T14:38:13;26.00;71.50
20141;DHT22;10231;47.702;9.826;2023-05-29T14:40:38;26.00;71.60
20141;DHT22;10231;47.702;9.826;2023-05-29T14:43:04;26.10;69.00
20141;DHT22;10231;47.702;9.826;2023-05-29T14:45:29;26.10;71.20
20141;DHT22;10231;47.702;9.826;2023-05-29T14:47:55;26.10;71.00
20141;DHT22;10231;47.702;9.826;2023-05-29T14:50:21;26.20;72.40
20141;DHT22;10231;47.702;9.826;2023-05-29T14:52:46;26.40;69.50
20141;DHT22;10231;47.702;9.826;2023-05-29T14:55:15;26.40;67.10
20141;DHT22;10231;47.702;9.826;2023-05-29T14:57:41;26.50;68.00
20141;DHT22;10231;47.702;9.826;2023-05-29T15:00:07;26.60;67.10
20141;DHT22;10231;47.702;9.826;2023-05-29T15:02:33;26.60;67.00
20141;DHT22;10231;47.702;9.826;2023-05-29T15:04:59;26.80;63.50
20141;DHT22;10231;47.702;9.826;2023-05-29T15:07:25;26.80;64.60
20141;DHT22;10231;47.702;9.826;2023-05-29T15:09:50;26.90;66.00
20141;DHT22;10231;47.702;9.826;2023-05-29T15:12:16;27.00;65.80
20141;DHT22;10231;47.702;9.826;2023-05-29T15:14:42;27.00;63.90
20141;DHT22;10231;47.702;9.826;2023-05-29T15:17:07;27.10;62.00
20141;DHT22;10231;47.702;9.826;2023-05-29T15:19:33;27.00;62.90
20141;DHT22;10231;47.702;9.826;2023-05-29T15:21:58;27.00;63.20
20141;DHT22;10231;47.702;9.826;2023-05-29T15:24:24;27.00;63.80
20141;DHT22;10231;47.702;9.826;2023-05-29T15:26:50;27.10;62.70
20141;DHT22;10231;47.702;9.826;2023-05-29T15:29:16;27.00;62.00
20141;DHT22;10231;47.702;9.826;2023-05-29T15:31:42;27.00;62.20
20141;DHT22;10231;47.702;9.826;2023-05-29T15:34:08;26.80;61.30
20141;DHT22;10231;47.702;9.826;2023-05-29T15:36:34;26.70;62.30
20141;DHT22;10231;47.702;9.826;2023-05-29T15:39:01;26.70;62.10
20141;DHT22;10231;47.702;9.826;2023-05-29T15:41:27;26.60;61.70
20141;DHT22;10231;47.702;9.826;2023-05-29T15:43:55;26.50;62.30
20141;DHT22;10231;47.702;9.826;2023-05-29T15:46:21;26.40;61.30
20141;DHT22;10231;47.702;9.826;2023-05-29T15:48:46;26.30;60.80
20141;DHT22;10231;47.702;9.826;2023-05-29T15:51:12;26.30;60.70
20141;DHT22;10231;47.702;9.826;2023-05-29T15:53:38;26.20;62.10